Weather at Navarro Airport

Public forecast

Using degrees Fahrenheit for public forecast. Weather courtesy of forecast.io.

Closest aviation weather report (METAR) to Navarro Airport

Closest report is Pennridge Airport, 2.4 nm (4.4 km) ENE. Retrieved 2020/09/27 03:15 UTC (0 seconds ago):

KCKZ 270315Z AUTO 00000KT 10SM OVC006 19/19 A3004 RMK AO2

Closest aviation forecast (TAF) to Navarro Airport

Closest forecast is Lehigh Valley International Airport, 17.4 nm (32.3 km) NNW. Retrieved 2020-09-27 00:24 UTC (3 hours ago):

TAF KABE 262323Z 2700/2724 VRB02KT P6SM SCT020 BKN035 FM270100 VRB02KT P6SM BKN020 FM270300 VRB02KT 5SM -DZ BR OVC008 FM270600 VRB02KT 1SM -DZ BR OVC003 FM271400 12005KT 5SM -DZ BR OVC008 FM271600 16005KT P6SM OVC015 FM271800 16007KT P6SM OVC025